Time;durP1;ratioP1;P1;durP2;ratioP2;P2;SDS_P1;SDS_P2;PMS_P1;PMS_P2;Temp;Humidity;BMP_temperature;BMP_pressure;BME280_temperature;BME280_humidity;BME280_pressure;Samples;Min_cycle;Max_cycle;Signal;HPM_P1;HPM_P2
2021/12/03 00:00:11;;;;;;;85.50;31.95;;;;;;;1.69;72.52;100466.81;692486;28;1251;-82
2021/12/03 00:00:38;;;;;;;88.43;32.90;;;;;;;1.75;72.59;100468.88;685744;28;1201;-82
2021/12/03 00:01:06;;;;;;;89.55;32.88;;;;;;;1.59;72.77;100455.09;685055;28;1123;-82
2021/12/03 00:01:29;;;;;;;86.57;32.25;;;;;;;1.68;72.71;100464.16;687656;28;1021;-82
2021/12/03 00:01:50;;;;;;;86.30;32.30;;;;;;;1.65;73.11;100453.69;687827;28;1708;-82
2021/12/03 00:02:10;;;;;;;88.93;31.67;;;;;;;1.61;73.02;100453.53;687983;28;978;-84
2021/12/03 00:02:31;;;;;;;87.43;31.70;;;;;;;1.52;73.21;100452.94;687692;28;1521;-84
2021/12/03 00:02:52;;;;;;;87.15;31.40;;;;;;;1.55;73.20;100458.31;686985;28;1391;-84
2021/12/03 00:03:13;;;;;;;93.65;31.92;;;;;;;1.58;73.21;100468.75;689353;28;1061;-84
2021/12/03 00:03:34;;;;;;;98.55;32.53;;;;;;;1.55;73.13;100457.41;687744;28;1108;-84
2021/12/03 00:03:55;;;;;;;102.45;32.95;;;;;;;1.51;73.39;100446.03;689206;28;1036;-84
2021/12/03 00:04:15;;;;;;;102.90;32.83;;;;;;;1.46;73.72;100450.03;682522;28;1177;-84
2021/12/03 00:04:36;;;;;;;104.82;33.30;;;;;;;1.51;73.53;100452.88;682459;28;1154;-84
2021/12/03 00:04:56;;;;;;;96.23;32.73;;;;;;;1.48;73.44;100445.88;682396;28;1041;-84
2021/12/03 00:05:17;;;;;;;96.27;33.93;;;;;;;1.52;73.28;100452.09;682321;28;1176;-83
2021/12/03 00:05:39;;;;;;;97.78;33.08;;;;;;;1.59;73.48;100459.38;685183;28;1018;-84
2021/12/03 00:05:59;;;;;;;98.38;32.13;;;;;;;1.50;73.27;100449.41;684911;28;1130;-84
2021/12/03 00:06:21;;;;;;;97.70;31.20;;;;;;;1.53;73.51;100448.72;688867;28;1107;-84
2021/12/03 00:06:41;;;;;;;91.78;31.25;;;;;;;1.57;74.02;100460.94;686391;28;1552;-83
2021/12/03 00:07:02;;;;;;;89.57;32.13;;;;;;;1.58;74.09;100460.19;687824;28;1091;-84
2021/12/03 00:07:22;;;;;;;84.10;32.08;;;;;;;1.52;73.80;100447.81;687744;28;1170;-84
2021/12/03 00:07:43;;;;;;;90.50;32.55;;;;;;;1.57;73.99;100461.84;685321;28;860;-84
2021/12/03 00:08:05;;;;;;;89.17;31.73;;;;;;;1.55;74.09;100455.72;684601;28;1163;-84
2021/12/03 00:08:26;;;;;;;89.88;31.42;;;;;;;1.55;73.91;100463.44;684954;28;1213;-84
2021/12/03 00:08:47;;;;;;;88.90;32.08;;;;;;;1.54;73.90;100455.63;684939;28;1475;-84
2021/12/03 00:09:08;;;;;;;87.28;31.98;;;;;;;1.49;73.66;100442.50;687789;28;1010;-84
2021/12/03 00:09:34;;;;;;;91.80;32.87;;;;;;;1.53;73.80;100447.03;684427;28;1235;-84
2021/12/03 00:09:54;;;;;;;94.25;33.00;;;;;;;1.53;73.80;100444.47;683487;28;1049;-84
2021/12/03 00:10:19;;;;;;;91.20;32.87;;;;;;;1.54;74.27;100453.97;687901;28;1119;-84
2021/12/03 00:10:40;;;;;;;88.10;32.10;;;;;;;1.49;74.28;100437.34;687787;28;1115;-84
2021/12/03 00:11:02;;;;;;;86.53;32.10;;;;;;;1.54;74.01;100443.66;687690;28;1135;-84
2021/12/03 00:11:24;;;;;;;86.05;31.70;;;;;;;1.52;73.48;100437.53;687634;28;1300;-83
2021/12/03 00:11:44;;;;;;;85.90;31.63;;;;;;;1.53;73.97;100444.47;682287;28;1998;-84
2021/12/03 00:12:06;;;;;;;86.05;31.80;;;;;;;1.62;73.44;100463.00;690105;28;1206;-84
2021/12/03 00:12:26;;;;;;;81.00;31.75;;;;;;;1.55;74.08;100445.44;690310;28;869;-84
2021/12/03 00:12:47;;;;;;;86.78;32.38;;;;;;;1.51;73.99;100438.31;687643;28;897;-84
2021/12/03 00:13:08;;;;;;;84.95;31.85;;;;;;;1.56;73.90;100447.22;685083;28;1782;-84
2021/12/03 00:13:31;;;;;;;84.72;31.70;;;;;;;1.65;73.67;100459.75;690414;28;1277;-84
2021/12/03 00:13:51;;;;;;;84.80;32.65;;;;;;;1.54;73.61;100435.94;689656;28;1139;-84
2021/12/03 00:14:12;;;;;;;91.63;32.67;;;;;;;1.58;73.88;100452.47;684495;28;1152;-84
2021/12/03 00:14:34;;;;;;;97.43;33.07;;;;;;;1.57;73.46;100443.84;687822;28;1205;-84
2021/12/03 00:14:55;;;;;;;91.30;32.42;;;;;;;1.61;73.78;100448.38;688922;28;1184;-85
2021/12/03 00:15:16;;;;;;;88.07;33.27;;;;;;;1.66;73.73;100447.75;690467;28;998;-84
2021/12/03 00:15:37;;;;;;;88.13;33.30;;;;;;;1.54;74.19;100440.19;690535;28;810;-84
2021/12/03 00:15:59;;;;;;;92.23;33.20;;;;;;;1.60;73.89;100446.59;693055;28;1241;-84
2021/12/03 00:16:20;;;;;;;88.38;33.67;;;;;;;1.60;74.03;100440.56;685057;28;1196;-84
2021/12/03 00:16:40;;;;;;;84.57;32.60;;;;;;;1.55;73.68;100432.59;690632;28;843;-84
2021/12/03 00:17:03;;;;;;;88.47;33.47;;;;;;;1.57;73.68;100430.06;685850;28;1143;-84
2021/12/03 00:17:23;;;;;;;94.47;32.97;;;;;;;1.62;74.16;100447.59;685123;28;882;-84
2021/12/03 00:17:44;;;;;;;97.53;33.50;;;;;;;1.57;74.21;100438.69;690344;28;799;-84
2021/12/03 00:18:05;;;;;;;93.00;33.58;;;;;;;1.57;73.68;100432.66;687908;28;1138;-84
2021/12/03 00:18:26;;;;;;;92.45;33.38;;;;;;;1.54;74.01;100430.81;687725;28;987;-84
2021/12/03 00:18:46;;;;;;;97.50;33.83;;;;;;;1.59;74.04;100429.38;689537;28;1746;-84
2021/12/03 00:19:07;;;;;;;92.93;33.22;;;;;;;1.57;74.23;100440.38;685319;28;1330;-84
2021/12/03 00:19:28;;;;;;;94.80;33.17;;;;;;;1.61;74.09;100432.94;688164;28;885;-84
2021/12/03 00:19:48;;;;;;;91.00;32.70;;;;;;;1.60;73.95;100435.41;690160;28;1256;-85
2021/12/03 00:20:12;;;;;;;96.75;33.67;;;;;;;1.64;73.86;100447.66;685068;28;1019;-85
2021/12/03 00:20:36;;;;;;;98.20;33.67;;;;;;;1.61;73.84;100442.34;692872;28;1806;-85
2021/12/03 00:21:00;;;;;;;92.63;33.05;;;;;;;1.63;74.04;100441.63;689584;28;1343;-85
2021/12/03 00:21:22;;;;;;;91.68;31.05;;;;;;;1.63;73.68;100445.88;693012;28;1110;-84
2021/12/03 00:21:43;;;;;;;79.57;30.25;;;;;;;1.60;73.54;100425.13;692925;28;1918;-84
2021/12/03 00:22:03;;;;;;;91.43;30.75;;;;;;;1.60;74.10;100428.56;687564;28;1484;-84
2021/12/03 00:22:25;;;;;;;94.60;31.67;;;;;;;1.66;73.57;100445.19;687745;28;1062;-85
2021/12/03 00:22:48;;;;;;;93.47;32.35;;;;;;;1.62;74.00;100431.25;689632;28;780;-85
2021/12/03 00:23:09;;;;;;;81.95;32.53;;;;;;;1.61;73.90;100432.03;690302;28;1185;-84
2021/12/03 00:23:30;;;;;;;81.77;31.70;;;;;;;1.59;73.79;100431.94;687640;28;1566;-84
2021/12/03 00:23:51;;;;;;;87.63;32.03;;;;;;;1.68;73.79;100447.03;687631;28;1311;-85
2021/12/03 00:24:12;;;;;;;88.15;31.73;;;;;;;1.61;73.78;100432.94;684815;28;1770;-84
2021/12/03 00:24:33;;;;;;;88.40;31.73;;;;;;;1.57;74.10;100420.69;682309;28;1149;-84
2021/12/03 00:24:54;;;;;;;84.22;31.85;;;;;;;1.57;73.59;100424.94;683395;28;1197;-85
2021/12/03 00:25:15;;;;;;;88.27;33.23;;;;;;;1.64;73.70;100429.66;687690;28;1154;-85
2021/12/03 00:25:36;;;;;;;89.22;33.50;;;;;;;1.62;73.87;100432.16;686767;28;1206;-85
2021/12/03 00:25:59;;;;;;;85.90;32.80;;;;;;;1.62;73.89;100428.66;684675;28;1048;-85
2021/12/03 00:26:20;;;;;;;85.85;32.03;;;;;;;1.60;73.81;100425.13;687627;28;1144;-85
2021/12/03 00:26:42;;;;;;;92.20;32.72;;;;;;;1.59;74.16;100428.50;690001;28;1190;-85
2021/12/03 00:27:04;;;;;;;90.82;32.15;;;;;;;1.61;73.88;100427.81;690232;28;1119;-85
2021/12/03 00:27:25;;;;;;;87.28;31.33;;;;;;;1.60;73.36;100423.44;690414;28;1390;-85
2021/12/03 00:27:46;;;;;;;81.25;31.35;;;;;;;1.58;73.74;100427.59;687893;28;862;-84
2021/12/03 00:28:06;;;;;;;78.72;31.17;;;;;;;1.60;73.92;100431.16;685186;28;962;-85
2021/12/03 00:28:29;;;;;;;85.57;31.47;;;;;;;1.61;74.09;100432.94;681997;28;1249;-85
2021/12/03 00:28:50;;;;;;;90.82;31.45;;;;;;;1.60;73.79;100426.00;688476;28;1435;-85
2021/12/03 00:29:10;;;;;;;95.95;32.40;;;;;;;1.66;73.61;100440.03;687535;28;1216;-85
2021/12/03 00:29:31;;;;;;;95.20;33.15;;;;;;;1.63;73.78;100436.50;690146;28;1057;-85
2021/12/03 00:29:51;;;;;;;106.10;34.13;;;;;;;1.67;73.64;100436.66;690536;28;1162;-85
2021/12/03 00:30:14;;;;;;;104.75;34.17;;;;;;;1.70;73.99;100439.44;687552;28;1449;-85
2021/12/03 00:30:36;;;;;;;108.13;34.25;;;;;;;1.66;73.85;100434.88;687761;28;1130;-84
2021/12/03 00:30:58;;;;;;;104.10;34.58;;;;;;;1.66;73.76;100429.75;687265;28;1448;-85
2021/12/03 00:31:19;;;;;;;102.30;35.70;;;;;;;1.65;73.90;100433.13;685000;28;1076;-85
2021/12/03 00:31:39;;;;;;;95.70;35.90;;;;;;;1.68;73.47;100438.44;687916;28;772;-85
2021/12/03 00:32:00;;;;;;;103.83;35.00;;;;;;;1.62;73.93;100427.00;689596;28;1251;-85
2021/12/03 00:32:21;;;;;;;107.53;35.15;;;;;;;1.62;73.90;100424.44;689900;28;1194;-85
2021/12/03 00:32:43;;;;;;;113.57;34.70;;;;;;;1.72;73.88;100448.13;687635;28;1409;-85
2021/12/03 00:33:05;;;;;;;106.82;35.10;;;;;;;1.72;73.38;100445.53;688000;28;1197;-85
2021/12/03 00:33:26;;;;;;;110.35;35.60;;;;;;;1.73;73.63;100447.31;684962;28;891;-85
2021/12/03 00:33:47;;;;;;;103.30;35.88;;;;;;;1.63;73.74;100430.44;681190;28;1712;-85
2021/12/03 00:34:07;;;;;;;105.33;36.07;;;;;;;1.60;73.79;100433.72;685119;28;1033;-85
2021/12/03 00:34:28;;;;;;;94.20;35.50;;;;;;;1.62;73.70;100429.56;693031;28;1381;-85
2021/12/03 00:34:48;;;;;;;96.85;35.67;;;;;;;1.70;73.97;100442.00;692536;28;1173;-85
2021/12/03 00:35:10;;;;;;;92.77;35.03;;;;;;;1.64;73.88;100437.34;685071;28;1093;-85
2021/12/03 00:35:32;;;;;;;102.93;35.47;;;;;;;1.70;74.02;100436.84;685063;28;960;-85
2021/12/03 00:35:53;;;;;;;100.10;35.45;;;;;;;1.68;73.69;100438.44;688488;28;1016;-85
2021/12/03 00:36:13;;;;;;;101.82;35.80;;;;;;;1.72;73.71;100459.28;687912;28;1272;-85
2021/12/03 00:36:34;;;;;;;96.32;35.03;;;;;;;1.71;73.95;100454.06;687606;28;1185;-85
2021/12/03 00:36:55;;;;;;;99.07;33.90;;;;;;;1.67;73.79;100437.56;683525;28;1146;-85
2021/12/03 00:37:16;;;;;;;97.40;34.53;;;;;;;1.77;73.76;100454.44;687571;28;1055;-86
2021/12/03 00:37:38;;;;;;;98.32;35.65;;;;;;;1.73;73.51;100447.31;687896;28;770;-85
2021/12/03 00:38:00;;;;;;;93.93;36.55;;;;;;;1.79;73.29;100445.09;687729;28;1178;-85
2021/12/03 00:38:22;;;;;;;100.47;36.80;;;;;;;1.82;73.68;100452.13;687505;28;1244;-85
2021/12/03 00:38:46;;;;;;;97.32;35.97;;;;;;;1.81;73.33;100450.31;687899;28;1684;-85
2021/12/03 00:39:07;;;;;;;105.45;36.13;;;;;;;1.75;73.83;100440.56;692914;28;1192;-85
2021/12/03 00:39:27;;;;;;;99.90;35.97;;;;;;;1.75;73.45;100443.13;687239;28;1136;-85
2021/12/03 00:39:49;;;;;;;98.00;36.10;;;;;;;1.71;73.85;100439.50;690208;28;1245;-85
2021/12/03 00:40:14;;;;;;;88.50;34.92;;;;;;;1.80;73.58;100448.56;690410;28;1683;-85
2021/12/03 00:40:39;;;;;;;85.63;33.28;;;;;;;1.75;73.30;100449.19;684878;28;1564;-85
2021/12/03 00:40:59;;;;;;;95.28;33.75;;;;;;;1.73;73.27;100443.06;684993;28;1212;-86
2021/12/03 00:41:21;;;;;;;104.28;34.58;;;;;;;1.79;73.69;100450.25;684749;28;1465;-85
2021/12/03 00:41:47;;;;;;;106.90;34.10;;;;;;;1.75;73.79;100443.13;690397;28;1985;-86
2021/12/03 00:42:08;;;;;;;104.75;35.58;;;;;;;1.82;73.46;100458.13;688343;28;1350;-85
2021/12/03 00:42:29;;;;;;;102.75;35.85;;;;;;;1.74;73.24;100442.28;690113;28;1520;-86
2021/12/03 00:42:50;;;;;;;113.05;35.72;;;;;;;1.79;73.69;100459.66;680088;29;1522;-85
2021/12/03 00:43:10;;;;;;;124.20;36.30;;;;;;;1.76;73.56;100442.34;682255;28;1259;-85
2021/12/03 00:43:31;;;;;;;117.32;36.60;;;;;;;1.73;73.45;100437.03;686711;28;1111;-86
2021/12/03 00:43:53;;;;;;;104.27;35.77;;;;;;;1.73;73.46;100437.03;687612;28;1572;-85
2021/12/03 00:44:13;;;;;;;100.10;34.85;;;;;;;1.77;73.23;100441.56;687861;28;945;-85
2021/12/03 00:44:34;;;;;;;102.75;35.03;;;;;;;1.80;73.34;100451.13;690318;28;1500;-85
2021/12/03 00:44:56;;;;;;;99.97;35.20;;;;;;;1.80;73.31;100454.59;690453;28;1162;-85
2021/12/03 00:45:16;;;;;;;93.78;35.88;;;;;;;1.76;73.43;100447.47;687375;28;1552;-86
2021/12/03 00:45:37;;;;;;;97.65;36.65;;;;;;;1.72;73.35;100441.25;690502;28;1048;-86
2021/12/03 00:46:04;;;;;;;103.35;37.30;;;;;;;1.80;73.68;100457.16;686283;28;1290;-85
2021/12/03 00:46:25;;;;;;;102.40;35.72;;;;;;;1.72;73.52;100451.56;687689;28;1059;-86
2021/12/03 00:46:45;;;;;;;98.10;35.00;;;;;;;1.77;73.59;100446.72;682421;28;1298;-85
2021/12/03 00:47:06;;;;;;;96.37;34.30;;;;;;;1.81;73.42;100450.31;684618;28;1409;-84
2021/12/03 00:47:27;;;;;;;94.72;34.38;;;;;;;1.79;73.33;100442.53;684962;28;1243;-84
2021/12/03 00:47:49;;;;;;;95.35;33.92;;;;;;;1.87;73.60;100460.97;684617;28;1510;-84
2021/12/03 00:48:09;;;;;;;98.03;34.10;;;;;;;1.80;73.66;100457.16;685099;28;1408;-84
2021/12/03 00:48:30;;;;;;;99.90;35.00;;;;;;;1.78;73.21;100456.19;684958;28;1263;-83
2021/12/03 00:48:53;;;;;;;96.57;35.03;;;;;;;1.85;73.60;100457.44;684679;28;1308;-83
2021/12/03 00:49:13;;;;;;;94.90;35.05;;;;;;;1.80;73.74;100453.69;684685;28;1063;-84
2021/12/03 00:49:34;;;;;;;92.10;35.33;;;;;;;1.83;73.14;100453.91;683889;28;1183;-84
2021/12/03 00:49:54;;;;;;;101.63;36.03;;;;;;;1.85;73.57;100450.63;684580;28;1136;-84
2021/12/03 00:50:20;;;;;;;110.30;36.20;;;;;;;1.85;73.22;100454.88;687197;28;1183;-83
2021/12/03 00:50:41;;;;;;;106.20;35.08;;;;;;;1.91;73.24;100458.66;687600;28;1362;-84
2021/12/03 00:51:02;;;;;;;96.32;35.65;;;;;;;1.80;73.53;100439.16;685004;28;1266;-84
2021/12/03 00:51:24;;;;;;;90.28;35.72;;;;;;;1.87;73.24;100459.31;687706;28;969;-83
2021/12/03 00:51:45;;;;;;;97.70;36.00;;;;;;;1.82;73.38;100455.56;687810;28;1155;-83
2021/12/03 00:52:06;;;;;;;105.07;36.00;;;;;;;1.83;73.43;100454.75;690203;28;1562;-84
2021/12/03 00:52:27;;;;;;;106.38;36.33;;;;;;;1.85;73.48;100458.34;689623;28;1611;-84
2021/12/03 00:52:48;;;;;;;105.65;35.88;;;;;;;1.81;73.52;100458.03;687711;28;1823;-84
2021/12/03 00:53:08;;;;;;;109.13;34.85;;;;;;;1.77;73.46;100449.28;687814;28;1250;-83
2021/12/03 00:53:29;;;;;;;108.37;34.07;;;;;;;1.82;73.39;100460.72;687556;28;1217;-84
2021/12/03 00:53:51;;;;;;;107.38;34.53;;;;;;;1.82;73.89;100460.72;687613;28;1155;-84
2021/12/03 00:54:13;;;;;;;106.03;35.40;;;;;;;1.78;73.92;100456.19;685462;28;1102;-84
2021/12/03 00:54:33;;;;;;;104.63;36.13;;;;;;;1.84;73.50;100456.53;687616;28;945;-83
2021/12/03 00:54:54;;;;;;;102.60;35.72;;;;;;;1.79;73.13;100451.94;688752;28;1067;-84
2021/12/03 00:55:16;;;;;;;101.80;35.00;;;;;;;1.82;73.81;100455.56;687811;28;1264;-84
2021/12/03 00:55:37;;;;;;;103.28;34.13;;;;;;;1.77;73.86;100449.28;685252;28;897;-84
2021/12/03 00:55:57;;;;;;;99.67;33.50;;;;;;;1.76;73.58;100453.53;693319;28;1166;-84
2021/12/03 00:56:18;;;;;;;88.22;33.50;;;;;;;1.78;73.43;100453.63;693048;28;1083;-84
2021/12/03 00:56:39;;;;;;;88.50;34.58;;;;;;;1.81;73.50;100456.38;689805;28;1152;-84
2021/12/03 00:57:00;;;;;;;93.07;35.50;;;;;;;1.87;73.21;100455.84;688532;28;1353;-84
2021/12/03 00:57:20;;;;;;;101.80;36.25;;;;;;;1.81;73.82;100447.75;687647;28;1312;-84
2021/12/03 00:57:41;;;;;;;96.27;36.10;;;;;;;1.85;73.67;100458.34;686487;28;1662;-83
2021/12/03 00:58:02;;;;;;;96.82;35.88;;;;;;;1.84;73.64;100453.97;687716;28;1223;-84
2021/12/03 00:58:38;;;;;;;88.45;35.55;;;;;;;1.90;73.60;100456.91;685559;28;1357;-84
2021/12/03 00:58:58;;;;;;;93.30;35.05;;;;;;;1.90;73.52;100466.31;682864;28;930;-84
2021/12/03 00:59:19;;;;;;;97.93;34.58;;;;;;;1.87;73.36;100456.72;686804;28;1557;-84
2021/12/03 00:59:39;;;;;;;94.83;34.77;;;;;;;1.87;73.59;100451.59;683940;28;1481;-84
2021/12/03 01:00:00;;;;;;;83.97;34.30;;;;;;;1.96;73.37;100465.78;683938;28;1105;-84
2021/12/03 01:00:25;;;;;;;85.38;34.58;;;;;;;1.96;73.43;100465.78;684871;28;1599;-84
2021/12/03 01:00:46;;;;;;;95.32;35.05;;;;;;;1.97;73.25;100463.31;682322;29;1518;-84
2021/12/03 01:01:07;;;;;;;96.30;34.88;;;;;;;1.88;73.50;100448.22;682472;28;947;-84
2021/12/03 01:01:28;;;;;;;86.50;34.08;;;;;;;1.85;73.22;100453.19;684584;28;1838;-84
2021/12/03 01:02:05;;;;;;;90.10;34.30;;;;;;;1.92;73.18;100459.56;685319;28;1981;-84
2021/12/03 01:02:25;;;;;;;97.78;34.97;;;;;;;1.95;73.15;100453.72;684593;28;1413;-84
2021/12/03 01:02:46;;;;;;;95.20;35.10;;;;;;;1.95;73.14;100453.72;684930;28;760;-83
2021/12/03 01:03:07;;;;;;;102.35;35.88;;;;;;;1.98;73.53;100467.66;685045;28;1099;-84
2021/12/03 01:03:28;;;;;;;101.80;36.20;;;;;;;1.90;73.21;100451.75;687109;28;1105;-84
2021/12/03 01:03:48;;;;;;;102.97;36.15;;;;;;;1.93;73.69;100456.19;683217;28;1709;-84
2021/12/03 01:04:09;;;;;;;98.50;35.97;;;;;;;1.88;73.16;100443.06;687684;28;1115;-84
2021/12/03 01:04:29;;;;;;;103.40;36.25;;;;;;;1.94;73.71;100459.66;690309;28;1087;-84
2021/12/03 01:04:50;;;;;;;105.90;37.20;;;;;;;1.93;73.14;100463.00;685637;28;1327;-83
2021/12/03 01:05:11;;;;;;;108.20;37.20;;;;;;;1.87;73.55;100446.44;685046;28;1113;-84
2021/12/03 01:05:33;;;;;;;100.40;36.57;;;;;;;1.90;73.36;100456.91;684973;28;1206;-83
2021/12/03 01:05:55;;;;;;;97.03;35.60;;;;;;;1.84;73.50;100443.66;684223;28;1077;-84
2021/12/03 01:06:16;;;;;;;94.85;34.97;;;;;;;1.87;73.39;100451.59;687823;28;1001;-83
2021/12/03 01:06:36;;;;;;;96.00;36.17;;;;;;;1.83;73.54;100452.19;687371;28;1900;-84
2021/12/03 01:06:57;;;;;;;98.40;35.85;;;;;;;1.88;73.53;100452.47;687889;28;1833;-83
2021/12/03 01:07:17;;;;;;;98.15;36.10;;;;;;;1.91;73.66;100458.66;690364;28;1148;-83
2021/12/03 01:07:38;;;;;;;91.80;34.40;;;;;;;1.83;73.74;100464.19;690386;28;1327;-83
2021/12/03 01:08:00;;;;;;;89.75;34.20;;;;;;;1.84;73.80;100461.69;687678;28;979;-84
2021/12/03 01:08:20;;;;;;;88.45;34.65;;;;;;;1.82;73.69;100453.00;687114;28;1841;-83
2021/12/03 01:08:41;;;;;;;94.27;36.13;;;;;;;1.80;73.94;100462.31;682400;29;760;-83
2021/12/03 01:09:03;;;;;;;96.18;37.38;;;;;;;1.84;73.97;100453.97;687070;28;953;-84
2021/12/03 01:09:24;;;;;;;92.55;36.92;;;;;;;1.76;74.35;100457.78;684339;28;1355;-84
2021/12/03 01:09:44;;;;;;;89.95;36.53;;;;;;;1.74;73.88;100454.22;687841;28;815;-84
2021/12/03 01:10:07;;;;;;;89.45;36.33;;;;;;;1.84;73.92;100461.69;686711;28;1159;-84
2021/12/03 01:10:29;;;;;;;96.28;36.83;;;;;;;1.77;73.78;100455.31;690321;28;1409;-83
2021/12/03 01:10:50;;;;;;;92.20;34.83;;;;;;;1.86;73.92;100469.50;690366;28;1391;-83
2021/12/03 01:11:13;;;;;;;91.65;34.22;;;;;;;1.80;74.15;100454.59;690484;28;980;-84
2021/12/03 01:11:33;;;;;;;95.68;34.45;;;;;;;1.82;73.96;100463.28;689947;28;1037;-83
2021/12/03 01:11:54;;;;;;;99.77;35.70;;;;;;;1.75;73.99;100446.63;692059;28;1271;-83
2021/12/03 01:12:15;;;;;;;97.28;35.15;;;;;;;1.76;73.71;100452.63;690070;28;1590;-83
2021/12/03 01:12:36;;;;;;;97.97;34.92;;;;;;;1.76;74.04;100442.34;687682;28;1194;-84
2021/12/03 01:12:57;;;;;;;99.63;35.35;;;;;;;1.81;74.09;100451.22;690961;28;1088;-83
2021/12/03 01:13:18;;;;;;;105.00;35.60;;;;;;;1.78;74.11;100458.78;690224;28;1071;-84
2021/12/03 01:13:41;;;;;;;101.55;35.63;;;;;;;1.76;73.68;100443.25;690626;28;803;-83
2021/12/03 01:14:03;;;;;;;93.05;34.30;;;;;;;1.83;74.21;100462.47;682578;28;1292;-83
2021/12/03 01:14:24;;;;;;;93.57;33.75;;;;;;;1.85;73.96;100460.00;684988;28;905;-82
2021/12/03 01:14:45;;;;;;;93.50;34.55;;;;;;;1.86;74.00;100464.34;687156;28;1250;-83
2021/12/03 01:15:09;;;;;;;95.72;35.17;;;;;;;1.77;74.38;100450.16;684908;28;1138;-83
2021/12/03 01:15:33;;;;;;;97.80;34.80;;;;;;;1.86;74.16;100460.09;690369;28;1200;-83
2021/12/03 01:15:53;;;;;;;98.82;34.58;;;;;;;1.89;74.17;100452.56;686475;28;1810;-83
2021/12/03 01:16:16;;;;;;;100.30;35.57;;;;;;;1.99;73.65;100465.94;683438;28;1491;-84
2021/12/03 01:16:36;;;;;;;98.25;36.35;;;;;;;1.93;74.12;100443.31;685075;28;1352;-83
2021/12/03 01:16:57;;;;;;;98.72;35.95;;;;;;;1.99;73.41;100455.66;686570;28;1045;-83
2021/12/03 01:17:18;;;;;;;95.10;36.17;;;;;;;1.95;73.67;100453.72;687753;28;1098;-83
2021/12/03 01:17:38;;;;;;;95.35;35.97;;;;;;;1.94;73.88;100454.53;686992;28;2359;-83
2021/12/03 01:18:01;;;;;;;99.05;36.97;;;;;;;1.92;73.72;100451.84;686834;28;2505;-83
2021/12/03 01:18:21;;;;;;;101.50;37.55;;;;;;;1.97;73.86;100467.56;682283;28;2692;-83
2021/12/03 01:18:45;;;;;;;101.00;38.23;;;;;;;1.99;73.93;100464.28;684428;28;1344;-83
2021/12/03 01:19:05;;;;;;;95.50;37.90;;;;;;;1.99;73.99;100473.66;692575;28;1112;-83
2021/12/03 01:19:26;;;;;;;103.03;37.92;;;;;;;2.00;73.69;100472.88;686948;28;966;-84
2021/12/03 01:19:49;;;;;;;105.57;36.93;;;;;;;1.92;73.64;100454.44;687569;28;1032;-83
2021/12/03 01:20:11;;;;;;;105.70;36.00;;;;;;;1.94;73.54;100463.13;687487;28;1259;-83
2021/12/03 01:20:33;;;;;;;101.13;35.67;;;;;;;1.96;73.68;100466.66;684459;28;1472;-83
2021/12/03 01:20:54;;;;;;;100.07;35.50;;;;;;;2.01;74.01;100472.09;684962;28;1089;-83
2021/12/03 01:21:15;;;;;;;96.60;36.60;;;;;;;2.02;73.83;100476.44;687621;28;1257;-83
2021/12/03 01:21:37;;;;;;;94.95;35.90;;;;;;;1.94;73.82;100462.25;687522;28;1919;-83
2021/12/03 01:21:58;;;;;;;90.75;35.58;;;;;;;1.98;73.38;100472.81;687423;28;1729;-83
2021/12/03 01:22:18;;;;;;;94.60;35.65;;;;;;;1.94;73.38;100462.25;682274;28;1245;-83
2021/12/03 01:22:41;;;;;;;95.53;35.43;;;;;;;1.96;73.52;100470.94;685006;28;1439;-84
2021/12/03 01:23:04;;;;;;;98.00;35.50;;;;;;;2.00;73.58;100483.16;685353;28;1135;-83
2021/12/03 01:23:25;;;;;;;86.30;34.72;;;;;;;1.97;73.44;100473.59;684938;28;1286;-83
2021/12/03 01:23:46;;;;;;;92.63;34.97;;;;;;;2.00;73.40;100478.91;690471;28;1160;-83
2021/12/03 01:24:07;;;;;;;100.15;36.20;;;;;;;1.98;73.70;100465.09;692981;28;1222;-83
2021/12/03 01:24:28;;;;;;;104.40;37.13;;;;;;;2.01;73.60;100472.09;687567;28;1154;-83
2021/12/03 01:24:48;;;;;;;100.35;38.58;;;;;;;2.04;73.44;100472.25;684890;28;1492;-83
2021/12/03 01:25:11;;;;;;;95.85;38.00;;;;;;;2.03;73.36;100473.94;690201;28;1580;-83
2021/12/03 01:25:31;;;;;;;106.15;38.17;;;;;;;2.00;73.99;100463.47;690313;28;1259;-83
2021/12/03 01:25:52;;;;;;;102.70;36.63;;;;;;;2.09;73.48;100485.41;690109;28;1035;-83
2021/12/03 01:26:13;;;;;;;103.22;36.85;;;;;;;2.00;73.42;100467.72;689673;28;1346;-83
2021/12/03 01:26:35;;;;;;;98.72;36.22;;;;;;;2.00;74.04;100468.63;684765;28;1120;-83
2021/12/03 01:26:56;;;;;;;103.02;36.28;;;;;;;2.01;73.36;100477.25;686325;28;1032;-83
2021/12/03 01:27:17;;;;;;;95.97;35.80;;;;;;;2.01;73.53;100482.41;684952;28;1110;-83
2021/12/03 01:27:38;;;;;;;94.45;35.30;;;;;;;1.94;73.71;100468.25;686871;28;835;-83
2021/12/03 01:28:00;;;;;;;96.30;35.15;;;;;;;2.00;73.58;100472.88;687526;28;1445;-84
2021/12/03 01:28:21;;;;;;;98.60;35.40;;;;;;;2.01;73.37;100477.25;687282;28;1564;-83
2021/12/03 01:28:43;;;;;;;93.18;36.40;;;;;;;1.99;73.94;100476.25;687719;28;1465;-84
2021/12/03 01:29:03;;;;;;;88.22;37.35;;;;;;;2.03;73.74;100488.50;690562;28;1438;-84
2021/12/03 01:29:25;;;;;;;88.53;37.47;;;;;;;2.04;73.50;100479.97;689823;28;1120;-83
2021/12/03 01:29:45;;;;;;;89.35;36.85;;;;;;;2.05;73.92;100481.75;687831;28;819;-83
2021/12/03 01:30:09;;;;;;;94.33;36.57;;;;;;;2.04;73.67;100479.97;684345;28;1338;-83
2021/12/03 01:30:31;;;;;;;94.50;36.53;;;;;;;2.13;73.52;100498.53;684936;28;1277;-83
2021/12/03 01:30:52;;;;;;;94.15;36.28;;;;;;;2.01;73.52;100484.97;686944;28;952;-83
2021/12/03 01:31:15;;;;;;;97.25;37.40;;;;;;;2.03;73.73;100488.50;687715;28;1250;-83
2021/12/03 01:31:35;;;;;;;99.07;37.30;;;;;;;2.07;73.57;100487.88;687714;28;919;-83
2021/12/03 01:31:57;;;;;;;96.55;37.50;;;;;;;2.06;73.55;100491.25;685411;28;1152;-83
2021/12/03 01:32:17;;;;;;;96.00;36.50;;;;;;;2.04;73.31;100485.13;685294;28;1121;-82
2021/12/03 01:32:39;;;;;;;95.60;36.40;;;;;;;2.00;73.76;100481.50;685703;28;772;-83
2021/12/03 01:33:01;;;;;;;95.55;36.28;;;;;;;2.01;74.00;100484.97;683588;28;1124;-83
2021/12/03 01:33:21;;;;;;;87.95;35.80;;;;;;;2.11;73.93;100500.13;683462;28;1603;-83
2021/12/03 01:33:43;;;;;;;91.20;36.03;;;;;;;2.09;74.09;100491.44;688042;28;891;-83
2021/12/03 01:34:04;;;;;;;89.70;36.92;;;;;;;2.08;73.52;100491.34;687926;28;1250;-83
2021/12/03 01:34:25;;;;;;;90.50;37.20;;;;;;;2.13;73.75;100495.97;688095;28;1168;-83
2021/12/03 01:34:45;;;;;;;92.70;37.15;;;;;;;2.10;73.65;100484.59;689168;28;752;-83
2021/12/03 01:35:07;;;;;;;96.80;37.00;;;;;;;2.01;73.36;100478.13;688068;28;1165;-83
2021/12/03 01:35:28;;;;;;;98.25;37.78;;;;;;;2.03;73.72;100491.09;683363;28;998;-83
2021/12/03 01:35:49;;;;;;;91.97;37.25;;;;;;;2.09;74.10;100487.97;685277;28;1074;-83
2021/12/03 01:36:10;;;;;;;91.60;36.90;;;;;;;2.10;73.90;100490.66;688158;28;1284;-83
2021/12/03 01:36:30;;;;;;;90.00;36.13;;;;;;;2.07;73.71;100490.44;685444;28;870;-83
2021/12/03 01:36:51;;;;;;;91.47;35.75;;;;;;;2.06;73.71;100482.66;686047;28;1196;-83
2021/12/03 01:37:11;;;;;;;88.78;36.33;;;;;;;2.11;73.57;100491.50;687437;28;1033;-83
2021/12/03 01:37:32;;;;;;;89.80;37.10;;;;;;;2.09;73.69;100490.53;688194;28;1154;-83
2021/12/03 01:37:53;;;;;;;87.53;36.95;;;;;;;2.05;73.63;100486.91;687255;28;1115;-83
2021/12/03 01:38:14;;;;;;;88.40;35.85;;;;;;;2.04;73.94;100477.41;685501;28;1112;-83
2021/12/03 01:38:34;;;;;;;94.70;35.53;;;;;;;2.18;73.84;100491.06;687796;28;1642;-83
2021/12/03 01:38:56;;;;;;;99.22;35.92;;;;;;;2.16;74.10;100490.97;690717;28;1150;-83
2021/12/03 01:39:17;;;;;;;95.63;36.17;;;;;;;2.11;73.57;100482.13;687696;28;1049;-84
2021/12/03 01:39:38;;;;;;;88.77;36.20;;;;;;;2.11;73.58;100483.78;688049;28;803;-83
2021/12/03 01:39:59;;;;;;;83.63;36.22;;;;;;;2.15;74.04;100494.34;683711;28;1261;-83
2021/12/03 01:40:23;;;;;;;85.67;36.00;;;;;;;2.15;73.80;100485.75;685580;28;1702;-84
2021/12/03 01:40:43;;;;;;;86.75;35.20;;;;;;;2.09;73.42;100491.44;686151;28;1253;-84